sensor_id;sensor_type;location;lat;lon;timestamp;P1;durP1;ratioP1;P2;durP2;ratioP2
36315;SDS011;22343;50.820;2.666;2023-02-20T00:02:42;15.90;;;9.23;;
36315;SDS011;22343;50.820;2.666;2023-02-20T00:05:26;18.67;;;8.83;;
36315;SDS011;22343;50.820;2.666;2023-02-20T00:08:10;20.13;;;8.80;;
36315;SDS011;22343;50.820;2.666;2023-02-20T00:10:55;18.43;;;9.40;;
36315;SDS011;22343;50.820;2.666;2023-02-20T00:13:44;19.37;;;9.67;;
36315;SDS011;22343;50.820;2.666;2023-02-20T00:16:31;19.57;;;9.77;;
36315;SDS011;22343;50.820;2.666;2023-02-20T00:19:16;19.77;;;9.53;;
36315;SDS011;22343;50.820;2.666;2023-02-20T00:22:00;16.23;;;9.13;;
36315;SDS011;22343;50.820;2.666;2023-02-20T00:24:44;17.37;;;9.37;;
36315;SDS011;22343;50.820;2.666;2023-02-20T00:27:29;21.20;;;8.97;;
36315;SDS011;22343;50.820;2.666;2023-02-20T00:30:20;16.27;;;8.40;;
36315;SDS011;22343;50.820;2.666;2023-02-20T00:33:06;18.47;;;7.80;;
36315;SDS011;22343;50.820;2.666;2023-02-20T00:35:50;19.43;;;8.13;;
36315;SDS011;22343;50.820;2.666;2023-02-20T00:38:34;16.97;;;7.07;;
36315;SDS011;22343;50.820;2.666;2023-02-20T00:41:19;15.13;;;6.90;;
36315;SDS011;22343;50.820;2.666;2023-02-20T00:44:05;15.70;;;6.63;;
36315;SDS011;22343;50.820;2.666;2023-02-20T00:46:50;13.97;;;6.20;;
36315;SDS011;22343;50.820;2.666;2023-02-20T00:49:35;12.13;;;5.93;;
36315;SDS011;22343;50.820;2.666;2023-02-20T00:52:19;15.03;;;5.87;;
36315;SDS011;22343;50.820;2.666;2023-02-20T00:55:03;18.33;;;5.70;;
36315;SDS011;22343;50.820;2.666;2023-02-20T00:57:48;15.10;;;5.97;;
36315;SDS011;22343;50.820;2.666;2023-02-20T01:00:32;21.40;;;6.50;;
36315;SDS011;22343;50.820;2.666;2023-02-20T01:03:17;12.57;;;5.87;;
36315;SDS011;22343;50.820;2.666;2023-02-20T01:06:01;17.77;;;6.30;;
36315;SDS011;22343;50.820;2.666;2023-02-20T01:08:45;12.70;;;6.13;;
36315;SDS011;22343;50.820;2.666;2023-02-20T01:11:29;17.90;;;6.60;;
36315;SDS011;22343;50.820;2.666;2023-02-20T01:14:14;17.20;;;7.27;;
36315;SDS011;22343;50.820;2.666;2023-02-20T01:16:58;16.10;;;7.33;;
36315;SDS011;22343;50.820;2.666;2023-02-20T01:19:43;14.83;;;7.27;;
36315;SDS011;22343;50.820;2.666;2023-02-20T01:22:27;18.27;;;7.47;;
36315;SDS011;22343;50.820;2.666;2023-02-20T01:25:12;15.07;;;6.67;;
36315;SDS011;22343;50.820;2.666;2023-02-20T01:27:56;17.20;;;7.00;;
36315;SDS011;22343;50.820;2.666;2023-02-20T01:30:40;15.47;;;7.10;;
36315;SDS011;22343;50.820;2.666;2023-02-20T01:33:25;15.07;;;6.90;;
36315;SDS011;22343;50.820;2.666;2023-02-20T01:36:10;16.73;;;7.73;;
36315;SDS011;22343;50.820;2.666;2023-02-20T01:38:54;22.50;;;8.37;;
36315;SDS011;22343;50.820;2.666;2023-02-20T01:41:39;19.07;;;8.80;;
36315;SDS011;22343;50.820;2.666;2023-02-20T01:44:25;17.70;;;8.27;;
36315;SDS011;22343;50.820;2.666;2023-02-20T01:47:15;20.43;;;8.40;;
36315;SDS011;22343;50.820;2.666;2023-02-20T01:50:01;20.23;;;8.47;;
36315;SDS011;22343;50.820;2.666;2023-02-20T01:52:51;18.43;;;8.60;;
36315;SDS011;22343;50.820;2.666;2023-02-20T01:55:39;18.57;;;8.73;;
36315;SDS011;22343;50.820;2.666;2023-02-20T01:58:33;18.83;;;8.93;;
36315;SDS011;22343;50.820;2.666;2023-02-20T02:01:21;21.43;;;9.87;;
36315;SDS011;22343;50.820;2.666;2023-02-20T02:04:06;15.67;;;9.50;;
36315;SDS011;22343;50.820;2.666;2023-02-20T02:06:52;20.50;;;11.73;;
36315;SDS011;22343;50.820;2.666;2023-02-20T02:12:38;25.63;;;13.63;;
36315;SDS011;22343;50.820;2.666;2023-02-20T02:15:23;24.63;;;13.57;;
36315;SDS011;22343;50.820;2.666;2023-02-20T02:30:23;23.77;;;10.97;;
36315;SDS011;22343;50.820;2.666;2023-02-20T02:33:06;20.23;;;11.60;;
36315;SDS011;22343;50.820;2.666;2023-02-20T02:36:17;24.13;;;10.80;;
36315;SDS011;22343;50.820;2.666;2023-02-20T02:42:19;20.27;;;9.70;;
36315;SDS011;22343;50.820;2.666;2023-02-20T02:46:13;19.73;;;9.93;;
36315;SDS011;22343;50.820;2.666;2023-02-20T02:48:44;21.20;;;11.30;;
36315;SDS011;22343;50.820;2.666;2023-02-20T02:51:33;23.90;;;11.80;;
36315;SDS011;22343;50.820;2.666;2023-02-20T02:54:21;23.77;;;12.50;;
36315;SDS011;22343;50.820;2.666;2023-02-20T02:57:29;22.87;;;12.77;;
36315;SDS011;22343;50.820;2.666;2023-02-20T03:00:16;20.63;;;11.97;;
36315;SDS011;22343;50.820;2.666;2023-02-20T03:06:36;22.57;;;12.03;;
36315;SDS011;22343;50.820;2.666;2023-02-20T03:09:24;22.73;;;11.73;;
36315;SDS011;22343;50.820;2.666;2023-02-20T03:12:10;21.90;;;11.73;;
36315;SDS011;22343;50.820;2.666;2023-02-20T03:15:07;20.13;;;11.63;;
36315;SDS011;22343;50.820;2.666;2023-02-20T03:18:30;22.47;;;10.30;;
36315;SDS011;22343;50.820;2.666;2023-02-20T03:21:18;21.20;;;10.37;;
36315;SDS011;22343;50.820;2.666;2023-02-20T03:24:04;19.47;;;9.80;;
36315;SDS011;22343;50.820;2.666;2023-02-20T03:26:49;22.43;;;10.33;;
36315;SDS011;22343;50.820;2.666;2023-02-20T03:29:36;18.20;;;9.60;;
36315;SDS011;22343;50.820;2.666;2023-02-20T03:32:21;16.07;;;8.60;;
36315;SDS011;22343;50.820;2.666;2023-02-20T03:35:27;18.93;;;8.57;;
36315;SDS011;22343;50.820;2.666;2023-02-20T03:38:33;17.27;;;7.87;;
36315;SDS011;22343;50.820;2.666;2023-02-20T03:41:38;15.67;;;7.20;;
36315;SDS011;22343;50.820;2.666;2023-02-20T03:44:42;12.37;;;5.97;;
36315;SDS011;22343;50.820;2.666;2023-02-20T03:47:27;13.77;;;6.03;;
36315;SDS011;22343;50.820;2.666;2023-02-20T03:50:12;13.63;;;6.13;;
36315;SDS011;22343;50.820;2.666;2023-02-20T03:53:15;13.40;;;5.60;;
36315;SDS011;22343;50.820;2.666;2023-02-20T03:56:01;12.80;;;5.43;;
36315;SDS011;22343;50.820;2.666;2023-02-20T03:58:49;10.77;;;5.33;;
36315;SDS011;22343;50.820;2.666;2023-02-20T04:01:37;15.00;;;5.30;;
36315;SDS011;22343;50.820;2.666;2023-02-20T04:04:23;13.60;;;5.53;;
36315;SDS011;22343;50.820;2.666;2023-02-20T04:07:19;12.30;;;6.10;;
36315;SDS011;22343;50.820;2.666;2023-02-20T04:10:09;17.40;;;6.93;;
36315;SDS011;22343;50.820;2.666;2023-02-20T04:12:56;17.00;;;7.27;;
36315;SDS011;22343;50.820;2.666;2023-02-20T04:15:41;16.40;;;7.47;;
36315;SDS011;22343;50.820;2.666;2023-02-20T04:18:26;16.03;;;7.97;;
36315;SDS011;22343;50.820;2.666;2023-02-20T04:21:28;18.23;;;8.10;;
36315;SDS011;22343;50.820;2.666;2023-02-20T04:24:18;15.27;;;7.50;;
36315;SDS011;22343;50.820;2.666;2023-02-20T04:27:05;14.73;;;7.43;;
36315;SDS011;22343;50.820;2.666;2023-02-20T04:29:50;17.67;;;7.50;;
36315;SDS011;22343;50.820;2.666;2023-02-20T04:32:35;16.70;;;7.40;;
36315;SDS011;22343;50.820;2.666;2023-02-20T04:35:20;12.13;;;7.00;;
36315;SDS011;22343;50.820;2.666;2023-02-20T04:38:05;15.07;;;7.40;;
36315;SDS011;22343;50.820;2.666;2023-02-20T04:40:50;19.07;;;7.50;;
36315;SDS011;22343;50.820;2.666;2023-02-20T04:43:34;13.17;;;7.50;;
36315;SDS011;22343;50.820;2.666;2023-02-20T04:46:19;18.07;;;7.73;;
36315;SDS011;22343;50.820;2.666;2023-02-20T04:49:03;15.03;;;8.07;;
36315;SDS011;22343;50.820;2.666;2023-02-20T04:51:47;16.70;;;8.37;;
36315;SDS011;22343;50.820;2.666;2023-02-20T04:54:32;19.00;;;8.73;;
36315;SDS011;22343;50.820;2.666;2023-02-20T04:57:17;15.57;;;8.63;;
36315;SDS011;22343;50.820;2.666;2023-02-20T05:00:02;15.33;;;7.80;;
36315;SDS011;22343;50.820;2.666;2023-02-20T05:02:48;14.87;;;7.70;;
36315;SDS011;22343;50.820;2.666;2023-02-20T05:05:32;16.57;;;7.17;;
36315;SDS011;22343;50.820;2.666;2023-02-20T05:08:17;13.03;;;8.27;;
36315;SDS011;22343;50.820;2.666;2023-02-20T05:11:01;16.47;;;7.57;;
36315;SDS011;22343;50.820;2.666;2023-02-20T05:13:45;14.60;;;7.97;;
36315;SDS011;22343;50.820;2.666;2023-02-20T05:16:30;18.10;;;7.60;;
36315;SDS011;22343;50.820;2.666;2023-02-20T05:19:14;13.80;;;7.67;;
36315;SDS011;22343;50.820;2.666;2023-02-20T05:21:58;14.53;;;7.80;;
36315;SDS011;22343;50.820;2.666;2023-02-20T05:25:01;15.13;;;8.40;;
36315;SDS011;22343;50.820;2.666;2023-02-20T05:27:46;16.37;;;9.07;;
36315;SDS011;22343;50.820;2.666;2023-02-20T05:30:30;19.77;;;9.17;;
36315;SDS011;22343;50.820;2.666;2023-02-20T05:33:14;19.17;;;9.00;;
36315;SDS011;22343;50.820;2.666;2023-02-20T05:35:59;22.13;;;10.27;;
36315;SDS011;22343;50.820;2.666;2023-02-20T05:38:43;19.33;;;10.20;;
36315;SDS011;22343;50.820;2.666;2023-02-20T05:41:32;18.20;;;10.53;;
36315;SDS011;22343;50.820;2.666;2023-02-20T05:44:16;18.40;;;10.23;;
36315;SDS011;22343;50.820;2.666;2023-02-20T05:47:01;17.37;;;10.40;;
36315;SDS011;22343;50.820;2.666;2023-02-20T05:49:46;22.53;;;11.10;;
36315;SDS011;22343;50.820;2.666;2023-02-20T05:52:30;20.03;;;10.67;;
36315;SDS011;22343;50.820;2.666;2023-02-20T05:55:15;17.10;;;10.23;;
36315;SDS011;22343;50.820;2.666;2023-02-20T05:57:59;17.03;;;10.93;;
36315;SDS011;22343;50.820;2.666;2023-02-20T06:00:44;20.50;;;11.20;;
36315;SDS011;22343;50.820;2.666;2023-02-20T06:03:28;17.87;;;11.97;;
36315;SDS011;22343;50.820;2.666;2023-02-20T06:06:12;16.47;;;11.83;;
36315;SDS011;22343;50.820;2.666;2023-02-20T06:08:57;20.53;;;12.97;;
36315;SDS011;22343;50.820;2.666;2023-02-20T06:11:53;18.43;;;12.03;;
36315;SDS011;22343;50.820;2.666;2023-02-20T06:14:39;18.67;;;12.23;;
36315;SDS011;22343;50.820;2.666;2023-02-20T06:17:23;22.10;;;11.83;;
36315;SDS011;22343;50.820;2.666;2023-02-20T06:20:07;19.93;;;12.33;;
36315;SDS011;22343;50.820;2.666;2023-02-20T06:22:52;18.87;;;12.23;;
36315;SDS011;22343;50.820;2.666;2023-02-20T06:25:36;18.93;;;11.87;;
36315;SDS011;22343;50.820;2.666;2023-02-20T06:28:21;19.17;;;11.73;;
36315;SDS011;22343;50.820;2.666;2023-02-20T06:31:06;17.93;;;12.17;;
36315;SDS011;22343;50.820;2.666;2023-02-20T06:33:51;18.97;;;12.07;;
36315;SDS011;22343;50.820;2.666;2023-02-20T06:36:37;20.23;;;12.20;;
36315;SDS011;22343;50.820;2.666;2023-02-20T06:39:23;21.27;;;11.80;;
36315;SDS011;22343;50.820;2.666;2023-02-20T06:42:07;20.47;;;11.50;;
36315;SDS011;22343;50.820;2.666;2023-02-20T06:44:51;19.97;;;12.23;;
36315;SDS011;22343;50.820;2.666;2023-02-20T06:47:36;20.50;;;11.80;;
36315;SDS011;22343;50.820;2.666;2023-02-20T06:50:20;20.67;;;11.73;;
36315;SDS011;22343;50.820;2.666;2023-02-20T06:53:04;20.90;;;10.57;;
36315;SDS011;22343;50.820;2.666;2023-02-20T06:55:49;19.37;;;10.63;;
36315;SDS011;22343;50.820;2.666;2023-02-20T06:58:33;17.53;;;10.10;;
36315;SDS011;22343;50.820;2.666;2023-02-20T07:01:18;16.60;;;10.53;;
36315;SDS011;22343;50.820;2.666;2023-02-20T07:04:14;17.97;;;10.47;;
36315;SDS011;22343;50.820;2.666;2023-02-20T07:07:06;15.30;;;9.70;;
36315;SDS011;22343;50.820;2.666;2023-02-20T07:09:52;19.37;;;9.47;;
36315;SDS011;22343;50.820;2.666;2023-02-20T07:12:38;16.53;;;9.83;;
36315;SDS011;22343;50.820;2.666;2023-02-20T07:15:24;17.33;;;10.30;;
36315;SDS011;22343;50.820;2.666;2023-02-20T07:18:10;19.47;;;10.30;;
36315;SDS011;22343;50.820;2.666;2023-02-20T07:20:55;20.23;;;10.50;;
36315;SDS011;22343;50.820;2.666;2023-02-20T07:23:40;17.73;;;10.00;;
36315;SDS011;22343;50.820;2.666;2023-02-20T07:26:27;16.93;;;9.70;;
36315;SDS011;22343;50.820;2.666;2023-02-20T07:29:13;17.17;;;9.73;;
36315;SDS011;22343;50.820;2.666;2023-02-20T07:31:59;16.23;;;9.73;;
36315;SDS011;22343;50.820;2.666;2023-02-20T07:34:43;17.30;;;10.53;;
36315;SDS011;22343;50.820;2.666;2023-02-20T07:37:30;18.30;;;10.13;;
36315;SDS011;22343;50.820;2.666;2023-02-20T07:40:15;18.50;;;10.07;;
36315;SDS011;22343;50.820;2.666;2023-02-20T07:42:59;17.20;;;9.63;;
36315;SDS011;22343;50.820;2.666;2023-02-20T07:45:43;19.23;;;10.23;;
36315;SDS011;22343;50.820;2.666;2023-02-20T07:48:28;16.83;;;9.80;;
36315;SDS011;22343;50.820;2.666;2023-02-20T07:51:12;20.17;;;9.87;;
36315;SDS011;22343;50.820;2.666;2023-02-20T07:53:57;21.03;;;10.17;;
36315;SDS011;22343;50.820;2.666;2023-02-20T07:56:41;16.97;;;8.70;;
36315;SDS011;22343;50.820;2.666;2023-02-20T07:59:26;19.40;;;9.13;;
36315;SDS011;22343;50.820;2.666;2023-02-20T08:02:10;17.27;;;9.70;;
36315;SDS011;22343;50.820;2.666;2023-02-20T08:04:55;18.23;;;10.03;;
36315;SDS011;22343;50.820;2.666;2023-02-20T08:07:43;17.00;;;10.33;;
36315;SDS011;22343;50.820;2.666;2023-02-20T08:10:31;18.70;;;10.40;;
36315;SDS011;22343;50.820;2.666;2023-02-20T08:13:15;17.93;;;11.53;;
36315;SDS011;22343;50.820;2.666;2023-02-20T08:16:00;18.97;;;11.63;;
36315;SDS011;22343;50.820;2.666;2023-02-20T08:18:44;18.70;;;11.13;;
36315;SDS011;22343;50.820;2.666;2023-02-20T08:21:29;19.07;;;12.20;;
36315;SDS011;22343;50.820;2.666;2023-02-20T08:24:13;18.93;;;11.57;;
36315;SDS011;22343;50.820;2.666;2023-02-20T08:26:58;17.67;;;11.17;;
36315;SDS011;22343;50.820;2.666;2023-02-20T08:29:44;17.97;;;11.50;;
36315;SDS011;22343;50.820;2.666;2023-02-20T08:32:30;18.17;;;11.60;;
36315;SDS011;22343;50.820;2.666;2023-02-20T08:35:15;17.77;;;10.97;;
36315;SDS011;22343;50.820;2.666;2023-02-20T08:38:03;16.53;;;10.23;;
36315;SDS011;22343;50.820;2.666;2023-02-20T08:40:49;14.90;;;10.10;;
36315;SDS011;22343;50.820;2.666;2023-02-20T08:43:35;18.10;;;10.80;;
36315;SDS011;22343;50.820;2.666;2023-02-20T08:46:21;14.30;;;9.30;;
36315;SDS011;22343;50.820;2.666;2023-02-20T08:49:05;16.30;;;9.40;;
36315;SDS011;22343;50.820;2.666;2023-02-20T08:51:52;17.13;;;9.27;;
36315;SDS011;22343;50.820;2.666;2023-02-20T08:54:38;17.50;;;9.57;;
36315;SDS011;22343;50.820;2.666;2023-02-20T08:57:22;14.87;;;9.40;;
36315;SDS011;22343;50.820;2.666;2023-02-20T09:00:06;17.87;;;9.43;;
36315;SDS011;22343;50.820;2.666;2023-02-20T09:02:52;16.57;;;8.33;;
36315;SDS011;22343;50.820;2.666;2023-02-20T09:05:36;16.83;;;9.43;;
36315;SDS011;22343;50.820;2.666;2023-02-20T09:08:20;18.27;;;9.30;;
36315;SDS011;22343;50.820;2.666;2023-02-20T09:11:05;17.07;;;9.53;;
36315;SDS011;22343;50.820;2.666;2023-02-20T09:13:51;18.13;;;10.13;;
36315;SDS011;22343;50.820;2.666;2023-02-20T09:16:35;17.27;;;10.37;;
36315;SDS011;22343;50.820;2.666;2023-02-20T09:19:19;18.67;;;10.17;;
36315;SDS011;22343;50.820;2.666;2023-02-20T09:22:04;14.90;;;8.80;;
36315;SDS011;22343;50.820;2.666;2023-02-20T09:24:49;13.83;;;7.63;;
36315;SDS011;22343;50.820;2.666;2023-02-20T09:27:35;15.03;;;8.30;;
36315;SDS011;22343;50.820;2.666;2023-02-20T09:30:21;11.90;;;7.50;;
36315;SDS011;22343;50.820;2.666;2023-02-20T09:33:06;12.50;;;7.73;;
36315;SDS011;22343;50.820;2.666;2023-02-20T09:35:51;16.77;;;8.07;;
36315;SDS011;22343;50.820;2.666;2023-02-20T09:38:37;13.33;;;7.50;;
36315;SDS011;22343;50.820;2.666;2023-02-20T09:41:25;11.37;;;7.40;;
36315;SDS011;22343;50.820;2.666;2023-02-20T09:44:20;12.43;;;7.97;;
36315;SDS011;22343;50.820;2.666;2023-02-20T09:47:27;14.30;;;8.50;;
36315;SDS011;22343;50.820;2.666;2023-02-20T09:50:22;15.53;;;8.37;;
36315;SDS011;22343;50.820;2.666;2023-02-20T09:56:20;14.23;;;8.80;;
36315;SDS011;22343;50.820;2.666;2023-02-20T09:59:11;17.90;;;9.00;;
36315;SDS011;22343;50.820;2.666;2023-02-20T10:05:08;11.33;;;7.07;;
36315;SDS011;22343;50.820;2.666;2023-02-20T10:07:57;12.63;;;7.47;;
36315;SDS011;22343;50.820;2.666;2023-02-20T10:10:42;13.00;;;7.10;;
36315;SDS011;22343;50.820;2.666;2023-02-20T10:13:48;13.77;;;7.13;;
36315;SDS011;22343;50.820;2.666;2023-02-20T10:19:48;12.97;;;8.17;;
36315;SDS011;22343;50.820;2.666;2023-02-20T10:25:49;17.20;;;8.40;;
36315;SDS011;22343;50.820;2.666;2023-02-20T10:28:39;14.53;;;8.30;;
36315;SDS011;22343;50.820;2.666;2023-02-20T10:31:35;10.53;;;7.60;;
36315;SDS011;22343;50.820;2.666;2023-02-20T10:34:22;11.20;;;6.20;;
36315;SDS011;22343;50.820;2.666;2023-02-20T10:37:14;12.60;;;6.47;;
36315;SDS011;22343;50.820;2.666;2023-02-20T10:43:20;8.60;;;6.10;;
36315;SDS011;22343;50.820;2.666;2023-02-20T10:49:28;10.03;;;6.03;;
36315;SDS011;22343;50.820;2.666;2023-02-20T10:52:42;11.90;;;6.80;;
36315;SDS011;22343;50.820;2.666;2023-02-20T11:01:38;11.53;;;7.20;;
36315;SDS011;22343;50.820;2.666;2023-02-20T11:04:24;8.97;;;6.47;;
36315;SDS011;22343;50.820;2.666;2023-02-20T11:07:12;11.97;;;7.23;;
36315;SDS011;22343;50.820;2.666;2023-02-20T11:09:59;12.40;;;7.33;;
36315;SDS011;22343;50.820;2.666;2023-02-20T11:15:32;13.27;;;7.50;;
36315;SDS011;22343;50.820;2.666;2023-02-20T11:18:41;12.43;;;7.27;;
36315;SDS011;22343;50.820;2.666;2023-02-20T11:24:39;12.80;;;7.10;;
36315;SDS011;22343;50.820;2.666;2023-02-20T11:27:26;12.43;;;7.50;;
36315;SDS011;22343;50.820;2.666;2023-02-20T11:36:19;10.60;;;7.60;;
36315;SDS011;22343;50.820;2.666;2023-02-20T11:39:09;10.07;;;7.60;;
36315;SDS011;22343;50.820;2.666;2023-02-20T11:42:15;10.03;;;8.40;;
36315;SDS011;22343;50.820;2.666;2023-02-20T11:45:11;12.10;;;8.73;;
36315;SDS011;22343;50.820;2.666;2023-02-20T11:48:14;11.20;;;8.70;;
36315;SDS011;22343;50.820;2.666;2023-02-20T11:51:01;12.60;;;9.30;;
36315;SDS011;22343;50.820;2.666;2023-02-20T11:53:46;13.27;;;8.70;;
36315;SDS011;22343;50.820;2.666;2023-02-20T11:57:00;13.00;;;8.27;;
36315;SDS011;22343;50.820;2.666;2023-02-20T11:59:50;14.80;;;8.47;;
36315;SDS011;22343;50.820;2.666;2023-02-20T12:02:35;12.40;;;7.43;;
36315;SDS011;22343;50.820;2.666;2023-02-20T12:05:20;15.10;;;7.20;;
36315;SDS011;22343;50.820;2.666;2023-02-20T12:11:15;10.87;;;7.50;;
36315;SDS011;22343;50.820;2.666;2023-02-20T12:14:05;13.77;;;7.80;;
36315;SDS011;22343;50.820;2.666;2023-02-20T12:17:07;13.23;;;7.63;;
36315;SDS011;22343;50.820;2.666;2023-02-20T12:20:27;11.73;;;8.00;;
36315;SDS011;22343;50.820;2.666;2023-02-20T12:26:18;9.30;;;5.87;;
36315;SDS011;22343;50.820;2.666;2023-02-20T12:29:12;10.10;;;6.80;;
36315;SDS011;22343;50.820;2.666;2023-02-20T12:35:22;9.63;;;7.20;;
36315;SDS011;22343;50.820;2.666;2023-02-20T12:38:26;11.10;;;6.90;;
36315;SDS011;22343;50.820;2.666;2023-02-20T12:47:41;11.60;;;7.87;;
36315;SDS011;22343;50.820;2.666;2023-02-20T13:02:40;10.90;;;6.27;;
36315;SDS011;22343;50.820;2.666;2023-02-20T13:05:28;11.50;;;6.40;;
36315;SDS011;22343;50.820;2.666;2023-02-20T13:08:14;10.90;;;6.00;;
36315;SDS011;22343;50.820;2.666;2023-02-20T13:11:23;10.33;;;6.40;;
36315;SDS011;22343;50.820;2.666;2023-02-20T13:14:15;10.90;;;6.63;;
36315;SDS011;22343;50.820;2.666;2023-02-20T13:20:04;14.83;;;7.17;;
36315;SDS011;22343;50.820;2.666;2023-02-20T13:23:27;8.13;;;5.57;;
36315;SDS011;22343;50.820;2.666;2023-02-20T13:29:26;10.57;;;5.43;;
36315;SDS011;22343;50.820;2.666;2023-02-20T13:35:31;9.93;;;5.37;;
36315;SDS011;22343;50.820;2.666;2023-02-20T13:38:33;8.60;;;5.57;;
36315;SDS011;22343;50.820;2.666;2023-02-20T13:41:17;12.73;;;6.40;;
36315;SDS011;22343;50.820;2.666;2023-02-20T13:44:45;10.00;;;6.43;;
36315;SDS011;22343;50.820;2.666;2023-02-20T13:50:25;10.20;;;7.67;;
36315;SDS011;22343;50.820;2.666;2023-02-20T13:53:11;10.13;;;7.60;;
36315;SDS011;22343;50.820;2.666;2023-02-20T13:55:56;10.20;;;7.80;;
36315;SDS011;22343;50.820;2.666;2023-02-20T13:58:40;12.23;;;7.70;;
36315;SDS011;22343;50.820;2.666;2023-02-20T14:01:24;13.33;;;7.47;;
36315;SDS011;22343;50.820;2.666;2023-02-20T14:04:09;12.77;;;8.00;;
36315;SDS011;22343;50.820;2.666;2023-02-20T14:06:53;13.63;;;8.50;;
36315;SDS011;22343;50.820;2.666;2023-02-20T14:09:38;12.90;;;8.20;;
36315;SDS011;22343;50.820;2.666;2023-02-20T14:12:22;10.87;;;8.27;;
36315;SDS011;22343;50.820;2.666;2023-02-20T14:15:07;12.07;;;8.17;;
36315;SDS011;22343;50.820;2.666;2023-02-20T14:17:51;11.87;;;8.87;;
36315;SDS011;22343;50.820;2.666;2023-02-20T14:20:36;12.47;;;8.67;;
36315;SDS011;22343;50.820;2.666;2023-02-20T14:23:23;15.10;;;9.23;;
36315;SDS011;22343;50.820;2.666;2023-02-20T14:26:17;14.73;;;9.20;;
36315;SDS011;22343;50.820;2.666;2023-02-20T14:29:06;12.67;;;8.80;;
36315;SDS011;22343;50.820;2.666;2023-02-20T14:32:03;18.53;;;9.23;;
36315;SDS011;22343;50.820;2.666;2023-02-20T14:34:54;12.30;;;9.00;;
36315;SDS011;22343;50.820;2.666;2023-02-20T14:41:21;10.03;;;6.37;;
36315;SDS011;22343;50.820;2.666;2023-02-20T14:44:13;10.40;;;7.20;;
36315;SDS011;22343;50.820;2.666;2023-02-20T14:47:09;9.47;;;6.40;;
36315;SDS011;22343;50.820;2.666;2023-02-20T14:50:15;10.27;;;6.93;;
36315;SDS011;22343;50.820;2.666;2023-02-20T14:53:17;10.77;;;6.73;;
36315;SDS011;22343;50.820;2.666;2023-02-20T14:56:16;11.87;;;6.50;;
36315;SDS011;22343;50.820;2.666;2023-02-20T15:02:15;12.03;;;7.63;;
36315;SDS011;22343;50.820;2.666;2023-02-20T15:05:03;10.87;;;7.07;;
36315;SDS011;22343;50.820;2.666;2023-02-20T15:07:49;15.07;;;7.40;;
36315;SDS011;22343;50.820;2.666;2023-02-20T15:10:36;12.20;;;6.90;;
36315;SDS011;22343;50.820;2.666;2023-02-20T15:13:26;11.83;;;6.93;;
36315;SDS011;22343;50.820;2.666;2023-02-20T15:16:14;13.27;;;7.50;;
36315;SDS011;22343;50.820;2.666;2023-02-20T15:19:18;13.40;;;6.97;;
36315;SDS011;22343;50.820;2.666;2023-02-20T15:22:04;9.10;;;6.60;;
36315;SDS011;22343;50.820;2.666;2023-02-20T15:24:49;11.57;;;7.20;;
36315;SDS011;22343;50.820;2.666;2023-02-20T15:27:33;7.90;;;6.57;;
36315;SDS011;22343;50.820;2.666;2023-02-20T15:30:17;10.07;;;6.80;;
36315;SDS011;22343;50.820;2.666;2023-02-20T15:33:02;11.77;;;7.07;;
36315;SDS011;22343;50.820;2.666;2023-02-20T15:35:47;10.40;;;7.60;;
36315;SDS011;22343;50.820;2.666;2023-02-20T15:38:33;12.33;;;7.20;;
36315;SDS011;22343;50.820;2.666;2023-02-20T15:41:17;10.10;;;7.70;;
36315;SDS011;22343;50.820;2.666;2023-02-20T15:44:04;11.93;;;7.60;;
36315;SDS011;22343;50.820;2.666;2023-02-20T15:46:48;11.23;;;8.33;;
36315;SDS011;22343;50.820;2.666;2023-02-20T15:49:33;12.40;;;8.53;;
36315;SDS011;22343;50.820;2.666;2023-02-20T15:52:18;11.47;;;8.30;;
36315;SDS011;22343;50.820;2.666;2023-02-20T15:55:03;12.27;;;8.33;;
36315;SDS011;22343;50.820;2.666;2023-02-20T15:57:48;11.13;;;7.57;;
36315;SDS011;22343;50.820;2.666;2023-02-20T16:00:33;12.17;;;7.97;;
36315;SDS011;22343;50.820;2.666;2023-02-20T16:03:18;11.30;;;7.93;;
36315;SDS011;22343;50.820;2.666;2023-02-20T16:06:03;12.83;;;7.87;;
36315;SDS011;22343;50.820;2.666;2023-02-20T16:08:48;11.40;;;7.50;;
36315;SDS011;22343;50.820;2.666;2023-02-20T16:11:37;10.77;;;7.97;;
36315;SDS011;22343;50.820;2.666;2023-02-20T16:14:26;10.83;;;7.70;;
36315;SDS011;22343;50.820;2.666;2023-02-20T16:17:12;11.67;;;7.90;;
36315;SDS011;22343;50.820;2.666;2023-02-20T16:20:08;11.57;;;7.90;;
36315;SDS011;22343;50.820;2.666;2023-02-20T16:22:58;11.33;;;7.50;;
36315;SDS011;22343;50.820;2.666;2023-02-20T16:25:43;9.43;;;6.53;;
36315;SDS011;22343;50.820;2.666;2023-02-20T16:28:29;11.10;;;6.70;;
36315;SDS011;22343;50.820;2.666;2023-02-20T16:31:14;10.33;;;6.20;;
36315;SDS011;22343;50.820;2.666;2023-02-20T16:34:01;11.20;;;6.57;;
36315;SDS011;22343;50.820;2.666;2023-02-20T16:36:48;9.53;;;5.87;;
36315;SDS011;22343;50.820;2.666;2023-02-20T16:39:33;8.07;;;6.13;;
36315;SDS011;22343;50.820;2.666;2023-02-20T16:42:27;9.13;;;6.83;;
36315;SDS011;22343;50.820;2.666;2023-02-20T16:45:17;9.70;;;6.83;;
36315;SDS011;22343;50.820;2.666;2023-02-20T16:48:02;10.67;;;7.37;;
36315;SDS011;22343;50.820;2.666;2023-02-20T16:50:49;11.43;;;7.80;;
36315;SDS011;22343;50.820;2.666;2023-02-20T16:53:37;16.07;;;8.33;;
36315;SDS011;22343;50.820;2.666;2023-02-20T16:56:21;16.03;;;9.03;;
36315;SDS011;22343;50.820;2.666;2023-02-20T16:59:06;14.43;;;8.80;;
36315;SDS011;22343;50.820;2.666;2023-02-20T17:01:53;11.50;;;9.03;;
36315;SDS011;22343;50.820;2.666;2023-02-20T17:04:37;15.30;;;8.13;;
36315;SDS011;22343;50.820;2.666;2023-02-20T17:07:22;11.57;;;7.40;;
36315;SDS011;22343;50.820;2.666;2023-02-20T17:10:06;13.40;;;7.67;;
36315;SDS011;22343;50.820;2.666;2023-02-20T17:12:51;10.90;;;6.97;;
36315;SDS011;22343;50.820;2.666;2023-02-20T17:15:37;11.73;;;7.07;;
36315;SDS011;22343;50.820;2.666;2023-02-20T17:18:22;11.03;;;7.50;;
36315;SDS011;22343;50.820;2.666;2023-02-20T17:21:09;12.27;;;7.83;;
36315;SDS011;22343;50.820;2.666;2023-02-20T17:23:55;13.23;;;7.50;;
36315;SDS011;22343;50.820;2.666;2023-02-20T17:26:40;11.70;;;7.73;;
36315;SDS011;22343;50.820;2.666;2023-02-20T17:29:25;11.67;;;7.60;;
36315;SDS011;22343;50.820;2.666;2023-02-20T17:32:11;10.03;;;7.50;;
36315;SDS011;22343;50.820;2.666;2023-02-20T17:34:58;12.87;;;7.30;;
36315;SDS011;22343;50.820;2.666;2023-02-20T17:37:43;8.07;;;6.33;;
36315;SDS011;22343;50.820;2.666;2023-02-20T17:40:29;9.47;;;6.33;;
36315;SDS011;22343;50.820;2.666;2023-02-20T17:43:14;8.20;;;5.70;;
36315;SDS011;22343;50.820;2.666;2023-02-20T17:46:00;8.77;;;6.30;;
36315;SDS011;22343;50.820;2.666;2023-02-20T17:48:45;8.97;;;5.97;;
36315;SDS011;22343;50.820;2.666;2023-02-20T17:51:32;9.83;;;6.57;;
36315;SDS011;22343;50.820;2.666;2023-02-20T17:54:17;9.67;;;7.20;;
36315;SDS011;22343;50.820;2.666;2023-02-20T17:57:13;12.80;;;8.07;;
36315;SDS011;22343;50.820;2.666;2023-02-20T17:59:59;11.77;;;7.40;;
36315;SDS011;22343;50.820;2.666;2023-02-20T18:02:45;10.53;;;7.27;;
36315;SDS011;22343;50.820;2.666;2023-02-20T18:05:31;12.43;;;8.13;;
36315;SDS011;22343;50.820;2.666;2023-02-20T18:08:15;13.33;;;7.50;;
36315;SDS011;22343;50.820;2.666;2023-02-20T18:11:00;12.13;;;7.37;;
36315;SDS011;22343;50.820;2.666;2023-02-20T18:13:44;12.00;;;7.67;;
36315;SDS011;22343;50.820;2.666;2023-02-20T18:16:29;9.80;;;7.30;;
36315;SDS011;22343;50.820;2.666;2023-02-20T18:19:13;10.63;;;6.60;;
36315;SDS011;22343;50.820;2.666;2023-02-20T18:22:00;10.33;;;6.73;;
36315;SDS011;22343;50.820;2.666;2023-02-20T18:24:46;8.63;;;6.47;;